Latest Weather Observations for Coen Airport

IDQ60801

Issued at 10:32 pm EST Friday 15 November 2019 (issued every 10 minutes, with the page automatically refreshed every 10 minutes)

About weather observations | Map of weather stations | Latest weather observations for QLD | Other Formats
Station Details ID: 027073 Name: COEN AIRPORT Lat: -13.76 Lon: 143.12 Height: 159.3 m
Data from the previous 72 hours. | See also: Recent months at Coen Airport
Date/Time
EST
Temp
°C
App
Temp
°C
Dew
Point
°C
Rel
Hum
%
Delta-T
°C
Wind Press
QNH
hPa
Press
MSL
hPa
Rain since
9am
mm
Dir  Spd
km/h
Gust
km/h
Spd
kts
Gust
kts
15/10:30pm 24.6 24.8 20.1 76 2.9 ENE 19 32 10 17 1013.1 1012.0 0.0
15/10:00pm 24.4 24.8 19.9 76 2.9 NE 17 26 9 14 1013.2 1012.1 0.0
15/09:30pm 24.4 24.7 19.7 75 3.0 NE 17 24 9 13 1013.2 1012.1 0.0
15/09:00pm 24.6 24.6 19.7 74 3.2 NE 19 26 10 14 1012.9 1011.8 0.0
15/08:30pm 24.8 24.6 19.4 72 3.5 NE 19 30 10 16 1012.7 1011.6 0.0
15/08:00pm 25.1 24.7 19.0 69 3.9 NE 19 28 10 15 1012.5 1011.4 0.0
15/07:30pm 25.5 25.5 18.9 67 4.2 NE 17 24 9 13 1012.1 1011.0 0.0
15/07:00pm 26.2 26.0 18.6 63 4.9 ENE 17 26 9 14 1011.5 1010.4 0.0
15/06:30pm 27.2 26.4 17.9 56 5.9 ENE 19 32 10 17 1011.1 1010.0 0.0
15/06:00pm 28.6 27.8 17.2 50 7.2 ENE 17 26 9 14 1010.5 1009.4 0.0
15/05:30pm 29.9 28.3 16.0 43 8.7 ENE 19 28 10 15 1010.0 1008.9 0.0
15/05:00pm 31.1 29.4 14.7 37 10.1 ENE 17 28 9 15 1009.7 1008.6 0.0
15/04:30pm 32.4 30.0 14.5 33 11.0 NE 20 30 11 16 1009.4 1008.3 0.0
15/04:00pm 32.4 29.6 12.6 30 11.9 ENE 19 30 10 16 1009.3 1008.2 0.0
15/03:30pm 32.7 29.6 13.4 31 11.7 NE 22 35 12 19 1009.4 1008.3 0.0
15/03:00pm 33.2 31.5 14.8 33 11.4 ENE 17 28 9 15 1009.5 1008.4 0.0
15/02:30pm 33.1 30.8 14.7 33 11.4 NE 20 32 11 17 1009.7 1008.6 0.0
15/02:00pm 33.9 31.7 14.9 32 11.9 NNE 20 35 11 19 1010.0 1008.9 0.0
15/01:30pm 32.5 30.0 14.1 32 11.3 NE 20 32 11 17 1010.5 1009.4 0.0
15/01:00pm 32.7 31.2 15.2 34 10.9 NE 17 30 9 16 1011.1 1010.0 0.0
15/12:30pm 32.7 31.4 15.7 36 10.7 ENE 17 30 9 16 1011.7 1010.6 0.0
15/12:00pm 31.8 29.9 15.7 37 10.1 NE 20 30 11 16 1012.2 1011.1 0.0
15/11:30am 31.8 30.0 16.1 38 9.9 NE 20 33 11 18 1012.3 1011.2 0.0
15/11:00am 31.2 30.2 17.5 44 8.8 NE 19 32 10 17 1012.5 1011.4 0.0
15/10:30am 30.3 29.5 17.0 44 8.4 NE 17 28 9 15 1012.8 1011.7 0.0
15/10:00am 29.9 29.2 17.4 47 8.0 NE 17 26 9 14 1013.1 1012.0 0.0
15/09:30am 29.3 28.0 18.1 51 7.2 NE 22 33 12 18 1013.2 1012.1 0.0
15/09:00am 28.0 27.8 18.4 56 6.2 ENE 17 28 9 15 1013.1 1012.0 0.0
15/08:30am 26.9 27.2 18.7 60 5.3 ENE 15 22 8 12 1013.0 1011.9 0.0
15/08:00am 26.4 27.9 19.8 67 4.3 ENE 11 20 6 11 1012.7 1011.6 0.0
15/07:30am 25.2 26.6 19.6 71 3.6 ENE 11 15 6 8 1012.3 1011.2 0.0
15/07:00am 23.7 25.1 19.6 78 2.6 NE 11 15 6 8 1011.9 1010.8 0.0
15/06:30am 22.5 24.1 19.1 81 2.2 ENE 9 11 5 6 1011.6 1010.5 0.0
15/06:00am 22.4 23.6 19.0 81 2.2 ENE 11 17 6 9 1011.2 1010.1 0.0
15/05:30am 22.3 23.8 18.9 81 2.2 NE 9 13 5 7 1011.1 1010.0 0.0
15/05:00am 22.2 23.7 18.8 81 2.2 NE 9 13 5 7 1010.5 1009.4 0.0
15/04:30am 21.8 23.2 18.6 82 2.0 ENE 9 11 5 6 1010.2 1009.1 0.0
15/04:00am 22.4 24.3 19.0 81 2.2 ENE 7 11 4 6 1010.3 1009.2 0.0
15/03:30am 22.3 24.1 18.7 80 2.3 ENE 7 9 4 5 1010.1 1009.0 0.0
15/03:00am 22.5 24.5 18.7 79 2.4 ENE 6 7 3 4 1010.3 1009.2 0.0
15/02:30am 22.7 24.5 18.7 78 2.5 ENE 7 11 4 6 1010.5 1009.4 0.0
15/02:00am 22.5 24.2 18.1 76 2.8 NE 6 7 3 4 1010.5 1009.4 0.0
15/01:30am 22.5 24.3 18.3 77 2.6 ESE 6 7 3 4 1010.9 1009.8 0.0
15/01:00am 22.1 24.9 17.9 77 2.6 CALM 0 0 0 0 1011.3 1010.2 0.0
15/12:30am 21.4 23.8 17.0 76 2.7 CALM 0 0 0 0 1011.4 1010.3 0.0
15/12:00am 21.4 23.7 16.8 75 2.8 CALM 0 0 0 0 1011.6 1010.5 0.0
 
Date/Time
EST
Temp
°C
App
Temp
°C
Dew
Point
°C
Rel
Hum
%
Delta-T
°C
Wind Press
QNH
hPa
Press
MSL
hPa
Rain since
9am
mm
Dir  Spd
km/h
Gust
km/h
Spd
kts
Gust
kts
14/11:30pm 22.1 23.2 17.0 73 3.1 SE 7 7 4 4 1011.7 1010.6 0.0
14/11:00pm 22.8 25.3 17.3 71 3.4 CALM 0 6 0 3 1011.7 1010.6 0.0
14/10:30pm 23.4 24.6 17.4 69 3.7 W 7 11 4 6 1011.6 1010.5 0.0
14/10:00pm 24.4 26.0 17.9 67 4.1 WNW 6 9 3 5 1011.0 1009.9 0.0
14/09:30pm 24.5 24.7 17.7 66 4.3 NNE 13 20 7 11 1010.1 1009.0 0.0
14/09:00pm 25.0 24.8 17.7 64 4.6 NNE 15 22 8 12 1009.8 1008.7 0.0
14/08:30pm 25.1 24.7 18.1 65 4.4 NNE 17 24 9 13 1009.7 1008.6 0.0
14/08:00pm 25.4 24.8 17.6 62 4.9 NNE 17 24 9 13 1009.5 1008.4 0.0
14/07:30pm 26.1 25.5 17.5 59 5.4 NNE 17 20 9 11 1009.1 1008.0 0.0
14/07:00pm 27.2 27.3 17.4 55 6.2 NE 13 20 7 11 1008.9 1007.8 0.0
14/06:30pm 28.3 27.1 16.2 47 7.5 NE 17 26 9 14 1008.6 1007.5 0.0
14/06:00pm 30.5 29.0 15.4 40 9.4 NE 17 26 9 14 1008.5 1007.4 0.0
14/05:30pm 31.7 29.8 15.2 36 10.2 NE 19 28 10 15 1008.5 1007.4 0.0
14/05:00pm 33.2 31.5 14.8 33 11.4 ENE 17 26 9 14 1008.2 1007.1 0.0
14/04:30pm 33.9 32.3 14.9 32 11.8 ENE 17 24 9 13 1008.0 1006.9 0.0
14/04:00pm 34.7 32.7 15.6 32 12.1 NE 20 32 11 17 1008.1 1007.0 0.0
14/03:30pm 34.6 32.0 16.0 33 11.8 NE 24 35 13 19 1008.2 1007.1 0.0
14/03:00pm 36.0 34.9 17.2 33 12.2 NE 19 32 10 17 1008.4 1007.3 0.0
14/02:30pm 35.7 35.4 17.4 33 11.9 NE 15 24 8 13 1008.6 1007.5 0.0
14/02:00pm 37.0 37.7 17.1 31 12.9 NNE 9 20 5 11 1009.0 1007.9 0.0
14/01:30pm 35.9 35.7 15.6 30 12.9 S 11 22 6 12 1009.5 1008.4 0.0
14/01:00pm 35.3 35.1 15.6 31 12.5 NW 11 20 6 11 1010.2 1009.1 0.0
14/12:30pm 34.9 34.3 15.7 31 12.1 N 13 19 7 10 1011.0 1009.9 0.0
14/12:00pm 33.3 33.3 15.3 34 11.3 WSW 9 13 5 7 1011.7 1010.6 0.0
14/11:30am 32.4 32.6 15.8 36 10.4 WNW 9 15 5 8 1012.5 1011.4 0.0
14/11:00am 33.0 33.8 17.2 39 10.1 S 9 19 5 10 1013.0 1011.9 0.0
14/10:30am 30.7 32.2 18.1 47 8.1 SW 7 17 4 9 1013.4 1012.3 0.0
14/10:00am 30.4 32.6 19.7 52 7.1 ESE 7 13 4 7 1013.7 1012.6 0.0
14/09:30am 28.7 30.5 19.6 58 6.0 NE 9 13 5 7 1013.9 1012.8 0.0
14/09:00am 28.2 30.8 21.2 65 4.7 ENE 9 17 5 9 1013.9 1012.8 0.0
14/08:30am 26.5 28.8 21.3 73 3.5 NNE 11 17 6 9 1014.0 1012.9 0.0
14/08:00am 25.7 28.5 21.6 78 2.7 NE 9 15 5 8 1013.9 1012.8 0.0
14/07:30am 24.4 26.7 21.3 83 2.1 NNE 11 15 6 8 1013.4 1012.3 0.0
14/07:00am 23.4 25.8 20.9 86 1.6 N 9 11 5 6 1013.1 1012.0 0.0
14/06:30am 22.4 25.4 20.1 87 1.5 NNE 4 9 2 5 1012.6 1011.5 0.0
14/06:00am 22.1 25.6 19.6 86 1.6 CALM 0 0 0 0 1012.1 1011.0 0.0
14/05:30am 22.2 24.6 19.7 86 1.6 NNE 6 9 3 5 1011.5 1010.4 0.0
14/05:00am 22.1 25.2 19.5 85 1.7 NNE 2 7 1 4 1011.3 1010.2 0.0
14/04:30am 22.6 25.0 19.6 83 1.9 NE 6 11 3 6 1011.1 1010.0 0.0
14/04:00am 22.9 24.1 19.9 83 1.9 NE 13 19 7 10 1011.1 1010.0 0.0
14/03:30am 23.0 23.9 20.0 83 1.9 NE 15 17 8 9 1011.0 1009.9 0.0
14/03:00am 23.0 25.0 20.0 83 1.9 NE 9 13 5 7 1011.2 1010.1 0.0
14/02:30am 22.5 24.1 19.9 85 1.7 NE 11 13 6 7 1011.5 1010.4 0.0
14/02:00am 21.5 23.5 18.7 84 1.8 NE 6 7 3 4 1011.9 1010.8 0.0
14/01:30am 21.7 23.2 18.9 84 1.8 NE 9 9 5 5 1012.4 1011.3 0.0
14/01:00am 21.6 23.7 18.2 81 2.1 N 4 7 2 4 1012.8 1011.7 0.0
14/12:30am 22.5 24.9 18.7 79 2.4 NNW 4 6 2 3 1013.2 1012.1 0.0
14/12:00am 22.9 24.9 19.1 79 2.4 N 7 7 4 4 1013.6 1012.5 0.0
 
Date/Time
EST
Temp
°C
App
Temp
°C
Dew
Point
°C
Rel
Hum
%
Delta-T
°C
Wind Press
QNH
hPa
Press
MSL
hPa
Rain since
9am
mm
Dir  Spd
km/h
Gust
km/h
Spd
kts
Gust
kts
13/11:30pm 23.5 25.2 19.4 78 2.6 N 9 13 5 7 1014.0 1012.9 0.0
13/11:00pm 23.9 25.0 19.6 77 2.8 N 13 19 7 10 1014.2 1013.1 0.0
13/10:30pm 24.0 25.4 19.5 76 2.9 N 11 15 6 8 1014.1 1013.0 0.0
13/10:00pm 24.1 25.1 19.4 75 3.0 N 13 17 7 9 1013.6 1012.5 0.0
13/09:30pm 24.2 23.9 19.5 75 3.0 NNE 20 33 11 18 1012.6 1011.5 0.0
13/09:00pm 24.3 23.9 19.4 74 3.2 NNE 20 30 11 16 1012.5 1011.4 0.0
13/08:30pm 24.4 23.1 19.0 72 3.5 NNE 24 33 13 18 1012.2 1011.1 0.0
13/08:00pm 24.8 23.3 18.5 68 4.0 NE 24 33 13 18 1011.8 1010.7 0.0
13/07:30pm 25.4 24.3 17.8 62 4.8 NNE 20 30 11 16 1011.3 1010.2 0.0
13/07:00pm 26.3 24.9 17.1 57 5.8 NE 20 35 11 19 1010.9 1009.8 0.0
13/06:30pm 27.4 25.0 15.4 48 7.4 NE 22 32 12 17 1010.4 1009.3 0.0
13/06:00pm 28.7 26.7 15.6 45 8.1 NE 20 33 11 18 1010.1 1009.0 0.0
13/05:30pm 30.0 26.8 15.3 41 9.1 NE 26 35 14 19 1009.8 1008.7 0.0
13/05:00pm 31.4 27.9 14.5 35 10.4 NE 26 37 14 20 1009.4 1008.3 0.0
13/04:30pm 32.5 28.9 14.1 32 11.3 NE 26 39 14 21 1009.3 1008.2 0.0
13/04:00pm 33.7 30.3 14.7 32 11.8 NE 26 37 14 20 1009.3 1008.2 0.0
13/03:30pm 34.0 30.5 14.5 31 12.1 NNE 26 37 14 20 1009.6 1008.5 0.0
13/03:00pm 34.4 31.2 14.3 30 12.5 NE 24 39 13 21 1009.6 1008.5 0.0
13/02:30pm 35.6 33.0 13.7 27 13.5 NE 20 28 11 15 1009.7 1008.6 0.0
13/02:00pm 35.1 32.7 12.7 26 13.6 NE 17 32 9 17 1010.1 1009.0 0.0
13/01:30pm 35.7 34.1 13.8 27 13.5 NE 15 32 8 17 1010.7 1009.6 0.0
13/01:00pm 34.5 32.9 13.9 29 12.7 NE 15 24 8 13 1011.3 1010.2 0.0
13/12:30pm 34.0 32.2 14.5 31 12.1 NW 17 24 9 13 1011.9 1010.8 0.0
13/12:00pm 34.2 33.2 15.6 32 11.7 E 15 30 8 16 1012.5 1011.4 0.0
13/11:30am 32.2 32.0 15.7 37 10.3 N 11 20 6 11 1013.2 1012.1 0.0
13/11:00am 31.1 31.0 15.9 40 9.5 NNE 11 22 6 12 1013.7 1012.6 0.0
13/10:30am 29.9 29.4 16.0 43 8.7 NNE 13 20 7 11 1014.1 1013.0 0.0
13/10:00am 29.5 29.3 16.7 46 8.1 E 13 22 7 12 1014.6 1013.5 0.0
13/09:30am 29.1 28.8 17.3 49 7.5 NE 15 20 8 11 1014.8 1013.7 0.0
13/09:00am 29.0 29.8 19.0 54 6.5 E 13 26 7 14 1015.0 1013.9 0.0
13/08:30am 27.3 28.0 18.9 60 5.4 NE 13 20 7 11 1015.1 1014.0 0.0
13/08:00am 26.0 27.6 19.2 66 4.4 NE 9 15 5 8 1015.2 1014.1 0.0
13/07:30am 24.5 26.7 19.3 73 3.4 N 6 9 3 5 1015.3 1014.2 0.0
13/07:00am 22.8 25.3 19.0 79 2.4 SSW 4 7 2 4 1015.0 1013.9 0.0
13/06:30am 19.5 21.7 16.5 83 1.8 CALM 0 0 0 0 1014.7 1013.6 0.0
13/06:00am 18.7 20.5 15.6 82 1.8 CALM 0 0 0 0 1014.4 1013.3 0.0
13/05:30am 18.8 20.6 15.5 81 2.0 CALM 0 0 0 0 1014.1 1013.0 0.0
13/05:00am 19.4 20.1 16.1 81 2.0 S 7 9 4 5 1014.1 1013.0 0.0
13/04:30am 19.1 19.9 15.8 81 2.0 SSE 6 9 3 5 1013.8 1012.7 0.0
13/04:00am 19.0 20.8 15.5 80 2.1 CALM 0 0 0 0 1013.8 1012.7 0.0
13/03:30am 19.4 21.2 15.5 78 2.3 CALM 0 0 0 0 1013.6 1012.5 0.0
13/03:00am 20.0 21.9 15.8 77 2.5 CALM 0 0 0 0 1013.5 1012.4 0.0
13/02:30am 20.3 21.0 15.7 75 2.8 W 6 9 3 5 1013.4 1012.3 0.0
13/02:00am 21.9 23.0 17.1 74 3.0 SW 7 11 4 6 1013.8 1012.7 0.0
13/01:30am 21.3 22.2 16.5 74 2.9 WSW 7 9 4 5 1013.9 1012.8 0.0
13/01:00am 21.6 23.0 16.3 72 3.2 SW 4 9 2 5 1014.0 1012.9 0.0
13/12:30am 22.4 24.6 16.4 69 3.7 CALM 0 0 0 0 1014.1 1013.0 0.0
13/12:00am 23.5 25.5 17.0 67 4.0 ENE 2 7 1 4 1014.2 1013.1 0.0
 
Date/Time
EST
Temp
°C
App
Temp
°C
Dew
Point
°C
Rel
Hum
%
Delta-T
°C
Wind Press
QNH
hPa
Press
MSL
hPa
Rain since
9am
mm
Dir  Spd
km/h
Gust
km/h
Spd
kts
Gust
kts
12/11:30pm 24.0 24.1 17.5 67 4.1 ENE 13 20 7 11 1014.4 1013.3 0.0
12/11:00pm 24.0 24.2 17.7 68 4.0 NE 13 22 7 12 1014.7 1013.6 0.0

Other formats

Comma delimited format used in spreadsheet applications
http://www.bom.gov.au/fwo/IDQ60801/IDQ60801.94183.axf

JavaScript Object Notation format (JSON) in row-major order
http://www.bom.gov.au/fwo/IDQ60801/IDQ60801.94183.json

Data quality

Most of these data are generated automatically and are frequently updated. Quality checks on data are not normally performed. It is possible for incorrect values to appear. Refer to information at About Latest Weather Observations and please check the disclaimer before using these data.